sensor_id;sensor_type;location;lat;lon;timestamp;P1;durP1;ratioP1;P2;durP2;ratioP2
17886;SDS011;9069;52.044;7.472;2022-09-09T00:04:28;2.45;;;1.38;;
17886;SDS011;9069;52.044;7.472;2022-09-09T00:07:01;2.55;;;1.15;;
17886;SDS011;9069;52.044;7.472;2022-09-09T00:09:39;1.75;;;0.85;;
17886;SDS011;9069;52.044;7.472;2022-09-09T00:12:17;3.70;;;1.30;;
17886;SDS011;9069;52.044;7.472;2022-09-09T00:14:54;3.05;;;1.02;;
17886;SDS011;9069;52.044;7.472;2022-09-09T00:20:14;6.70;;;1.10;;
17886;SDS011;9069;52.044;7.472;2022-09-09T00:23:04;3.40;;;1.17;;
17886;SDS011;9069;52.044;7.472;2022-09-09T00:25:43;1.40;;;0.80;;
17886;SDS011;9069;52.044;7.472;2022-09-09T00:28:33;1.58;;;0.80;;
17886;SDS011;9069;52.044;7.472;2022-09-09T00:31:23;1.77;;;0.70;;
17886;SDS011;9069;52.044;7.472;2022-09-09T00:33:52;2.08;;;1.08;;
17886;SDS011;9069;52.044;7.472;2022-09-09T00:36:21;3.00;;;0.90;;
17886;SDS011;9069;52.044;7.472;2022-09-09T00:38:52;5.20;;;1.00;;
17886;SDS011;9069;52.044;7.472;2022-09-09T00:41:33;1.45;;;0.90;;
17886;SDS011;9069;52.044;7.472;2022-09-09T00:58:27;1.67;;;0.70;;
17886;SDS011;9069;52.044;7.472;2022-09-09T01:01:00;1.45;;;0.60;;
17886;SDS011;9069;52.044;7.472;2022-09-09T01:03:37;0.63;;;0.50;;
17886;SDS011;9069;52.044;7.472;2022-09-09T01:11:55;4.00;;;0.75;;
17886;SDS011;9069;52.044;7.472;2022-09-09T01:17:15;1.88;;;0.80;;
17886;SDS011;9069;52.044;7.472;2022-09-09T01:28:35;1.45;;;0.82;;
17886;SDS011;9069;52.044;7.472;2022-09-09T01:31:08;3.80;;;0.98;;
17886;SDS011;9069;52.044;7.472;2022-09-09T01:33:44;2.10;;;0.98;;
17886;SDS011;9069;52.044;7.472;2022-09-09T01:36:19;2.47;;;1.10;;
17886;SDS011;9069;52.044;7.472;2022-09-09T01:39:11;2.13;;;1.08;;
17886;SDS011;9069;52.044;7.472;2022-09-09T01:41:40;1.00;;;0.90;;
17886;SDS011;9069;52.044;7.472;2022-09-09T01:44:10;5.22;;;1.40;;
17886;SDS011;9069;52.044;7.472;2022-09-09T01:46:40;1.35;;;0.98;;
17886;SDS011;9069;52.044;7.472;2022-09-09T01:49:13;1.67;;;1.23;;
17886;SDS011;9069;52.044;7.472;2022-09-09T01:51:40;2.47;;;1.05;;
17886;SDS011;9069;52.044;7.472;2022-09-09T01:54:11;3.15;;;1.05;;
17886;SDS011;9069;52.044;7.472;2022-09-09T01:56:55;2.35;;;1.50;;
17886;SDS011;9069;52.044;7.472;2022-09-09T02:08:17;2.75;;;1.48;;
17886;SDS011;9069;52.044;7.472;2022-09-09T02:10:58;1.45;;;1.30;;
17886;SDS011;9069;52.044;7.472;2022-09-09T02:13:40;2.95;;;1.60;;
17886;SDS011;9069;52.044;7.472;2022-09-09T02:16:17;1.63;;;1.15;;
17886;SDS011;9069;52.044;7.472;2022-09-09T02:18:51;4.40;;;1.55;;
17886;SDS011;9069;52.044;7.472;2022-09-09T02:21:36;1.80;;;1.33;;
17886;SDS011;9069;52.044;7.472;2022-09-09T02:24:06;1.90;;;1.40;;
17886;SDS011;9069;52.044;7.472;2022-09-09T02:26:42;2.97;;;1.13;;
17886;SDS011;9069;52.044;7.472;2022-09-09T02:29:26;3.60;;;1.33;;
17886;SDS011;9069;52.044;7.472;2022-09-09T02:31:57;1.45;;;0.95;;
17886;SDS011;9069;52.044;7.472;2022-09-09T02:34:33;3.42;;;1.10;;
17886;SDS011;9069;52.044;7.472;2022-09-09T02:37:04;2.58;;;1.30;;
17886;SDS011;9069;52.044;7.472;2022-09-09T02:39:34;3.42;;;1.00;;
17886;SDS011;9069;52.044;7.472;2022-09-09T02:42:03;1.58;;;1.30;;
17886;SDS011;9069;52.044;7.472;2022-09-09T02:44:31;1.30;;;1.20;;
17886;SDS011;9069;52.044;7.472;2022-09-09T02:47:08;4.53;;;1.52;;
17886;SDS011;9069;52.044;7.472;2022-09-09T02:55:32;2.95;;;1.35;;
17886;SDS011;9069;52.044;7.472;2022-09-09T02:58:07;5.22;;;1.40;;
17886;SDS011;9069;52.044;7.472;2022-09-09T03:00:38;2.80;;;1.00;;
17886;SDS011;9069;52.044;7.472;2022-09-09T03:03:07;1.33;;;0.90;;
17886;SDS011;9069;52.044;7.472;2022-09-09T03:05:36;1.27;;;1.08;;
17886;SDS011;9069;52.044;7.472;2022-09-09T03:08:04;2.58;;;1.42;;
17886;SDS011;9069;52.044;7.472;2022-09-09T03:10:32;2.17;;;1.30;;
17886;SDS011;9069;52.044;7.472;2022-09-09T03:12:59;1.60;;;1.15;;
17886;SDS011;9069;52.044;7.472;2022-09-09T03:15:29;2.90;;;1.25;;
17886;SDS011;9069;52.044;7.472;2022-09-09T03:17:58;1.95;;;1.42;;
17886;SDS011;9069;52.044;7.472;2022-09-09T03:20:26;2.58;;;1.30;;
17886;SDS011;9069;52.044;7.472;2022-09-09T03:22:54;2.75;;;1.20;;
17886;SDS011;9069;52.044;7.472;2022-09-09T03:25:21;4.80;;;1.38;;
17886;SDS011;9069;52.044;7.472;2022-09-09T03:27:51;1.55;;;1.20;;
17886;SDS011;9069;52.044;7.472;2022-09-09T03:30:21;2.03;;;1.30;;
17886;SDS011;9069;52.044;7.472;2022-09-09T03:32:49;2.78;;;1.10;;
17886;SDS011;9069;52.044;7.472;2022-09-09T03:35:16;1.83;;;0.90;;
17886;SDS011;9069;52.044;7.472;2022-09-09T03:37:44;5.22;;;1.40;;
17886;SDS011;9069;52.044;7.472;2022-09-09T03:40:12;1.77;;;1.25;;
17886;SDS011;9069;52.044;7.472;2022-09-09T03:42:42;1.35;;;1.20;;
17886;SDS011;9069;52.044;7.472;2022-09-09T03:45:09;1.85;;;0.95;;
17886;SDS011;9069;52.044;7.472;2022-09-09T03:47:39;3.65;;;1.30;;
17886;SDS011;9069;52.044;7.472;2022-09-09T03:50:06;3.30;;;1.13;;
17886;SDS011;9069;52.044;7.472;2022-09-09T03:52:36;7.22;;;1.50;;
17886;SDS011;9069;52.044;7.472;2022-09-09T03:55:07;2.45;;;1.05;;
17886;SDS011;9069;52.044;7.472;2022-09-09T03:57:35;1.88;;;1.20;;
17886;SDS011;9069;52.044;7.472;2022-09-09T04:00:06;1.88;;;1.38;;
17886;SDS011;9069;52.044;7.472;2022-09-09T04:02:46;1.50;;;1.00;;
17886;SDS011;9069;52.044;7.472;2022-09-09T04:05:15;0.85;;;0.85;;
17886;SDS011;9069;52.044;7.472;2022-09-09T04:07:43;1.63;;;1.25;;
17886;SDS011;9069;52.044;7.472;2022-09-09T04:10:10;3.88;;;1.90;;
17886;SDS011;9069;52.044;7.472;2022-09-09T04:12:39;2.00;;;1.40;;
17886;SDS011;9069;52.044;7.472;2022-09-09T04:15:05;2.03;;;1.60;;
17886;SDS011;9069;52.044;7.472;2022-09-09T04:17:34;1.38;;;1.25;;
17886;SDS011;9069;52.044;7.472;2022-09-09T04:20:03;4.78;;;1.50;;
17886;SDS011;9069;52.044;7.472;2022-09-09T04:22:30;2.65;;;1.52;;
17886;SDS011;9069;52.044;7.472;2022-09-09T04:24:58;1.77;;;1.40;;
17886;SDS011;9069;52.044;7.472;2022-09-09T04:27:26;2.00;;;1.52;;
17886;SDS011;9069;52.044;7.472;2022-09-09T04:29:53;2.45;;;1.13;;
17886;SDS011;9069;52.044;7.472;2022-09-09T04:32:20;2.70;;;1.38;;
17886;SDS011;9069;52.044;7.472;2022-09-09T04:34:47;4.03;;;1.73;;
17886;SDS011;9069;52.044;7.472;2022-09-09T04:37:15;5.38;;;1.30;;
17886;SDS011;9069;52.044;7.472;2022-09-09T04:39:43;3.35;;;1.27;;
17886;SDS011;9069;52.044;7.472;2022-09-09T04:42:09;3.92;;;1.42;;
17886;SDS011;9069;52.044;7.472;2022-09-09T04:44:36;1.88;;;1.42;;
17886;SDS011;9069;52.044;7.472;2022-09-09T04:47:03;2.08;;;1.48;;
17886;SDS011;9069;52.044;7.472;2022-09-09T04:49:31;5.72;;;1.65;;
17886;SDS011;9069;52.044;7.472;2022-09-09T04:51:58;2.15;;;1.60;;
17886;SDS011;9069;52.044;7.472;2022-09-09T04:54:25;2.95;;;1.52;;
17886;SDS011;9069;52.044;7.472;2022-09-09T04:56:52;2.45;;;1.55;;
17886;SDS011;9069;52.044;7.472;2022-09-09T04:59:18;2.03;;;1.25;;
17886;SDS011;9069;52.044;7.472;2022-09-09T05:01:49;2.58;;;1.45;;
17886;SDS011;9069;52.044;7.472;2022-09-09T05:04:16;2.28;;;1.80;;
17886;SDS011;9069;52.044;7.472;2022-09-09T05:06:43;2.75;;;1.80;;
17886;SDS011;9069;52.044;7.472;2022-09-09T05:09:11;2.90;;;1.80;;
17886;SDS011;9069;52.044;7.472;2022-09-09T05:11:37;2.00;;;1.60;;
17886;SDS011;9069;52.044;7.472;2022-09-09T05:14:27;4.30;;;2.00;;
17886;SDS011;9069;52.044;7.472;2022-09-09T05:16:55;4.00;;;1.60;;
17886;SDS011;9069;52.044;7.472;2022-09-09T05:19:23;3.17;;;1.90;;
17886;SDS011;9069;52.044;7.472;2022-09-09T05:21:51;4.40;;;1.80;;
17886;SDS011;9069;52.044;7.472;2022-09-09T05:24:22;2.20;;;2.00;;
17886;SDS011;9069;52.044;7.472;2022-09-09T05:26:52;2.10;;;1.80;;
17886;SDS011;9069;52.044;7.472;2022-09-09T05:29:18;2.72;;;1.80;;
17886;SDS011;9069;52.044;7.472;2022-09-09T05:31:45;5.35;;;1.73;;
17886;SDS011;9069;52.044;7.472;2022-09-09T05:34:15;2.22;;;1.52;;
17886;SDS011;9069;52.044;7.472;2022-09-09T05:36:42;1.52;;;1.40;;
17886;SDS011;9069;52.044;7.472;2022-09-09T05:39:10;3.90;;;1.90;;
17886;SDS011;9069;52.044;7.472;2022-09-09T05:41:38;2.67;;;1.63;;
17886;SDS011;9069;52.044;7.472;2022-09-09T05:44:05;2.90;;;1.52;;
17886;SDS011;9069;52.044;7.472;2022-09-09T05:46:36;2.38;;;1.60;;
17886;SDS011;9069;52.044;7.472;2022-09-09T05:49:04;7.25;;;1.90;;
17886;SDS011;9069;52.044;7.472;2022-09-09T05:51:32;5.50;;;1.55;;
17886;SDS011;9069;52.044;7.472;2022-09-09T05:54:07;3.30;;;1.50;;
17886;SDS011;9069;52.044;7.472;2022-09-09T05:56:38;3.03;;;1.63;;
17886;SDS011;9069;52.044;7.472;2022-09-09T05:59:07;4.82;;;1.92;;
17886;SDS011;9069;52.044;7.472;2022-09-09T06:01:35;2.55;;;1.50;;
17886;SDS011;9069;52.044;7.472;2022-09-09T06:04:09;2.17;;;1.67;;
17886;SDS011;9069;52.044;7.472;2022-09-09T06:06:37;2.63;;;1.25;;
17886;SDS011;9069;52.044;7.472;2022-09-09T06:09:11;2.03;;;1.40;;
17886;SDS011;9069;52.044;7.472;2022-09-09T06:11:41;2.00;;;1.50;;
17886;SDS011;9069;52.044;7.472;2022-09-09T06:14:09;4.18;;;1.70;;
17886;SDS011;9069;52.044;7.472;2022-09-09T06:16:38;3.60;;;1.42;;
17886;SDS011;9069;52.044;7.472;2022-09-09T06:19:11;4.43;;;1.40;;
17886;SDS011;9069;52.044;7.472;2022-09-09T06:21:39;3.53;;;1.50;;
17886;SDS011;9069;52.044;7.472;2022-09-09T06:24:07;2.05;;;1.40;;
17886;SDS011;9069;52.044;7.472;2022-09-09T06:26:35;6.13;;;1.60;;
17886;SDS011;9069;52.044;7.472;2022-09-09T06:29:05;5.32;;;1.45;;
17886;SDS011;9069;52.044;7.472;2022-09-09T06:31:32;4.45;;;1.55;;
17886;SDS011;9069;52.044;7.472;2022-09-09T06:34:06;7.53;;;1.58;;
17886;SDS011;9069;52.044;7.472;2022-09-09T06:36:38;2.92;;;1.20;;
17886;SDS011;9069;52.044;7.472;2022-09-09T06:39:06;6.72;;;1.65;;
17886;SDS011;9069;52.044;7.472;2022-09-09T06:41:40;2.63;;;1.38;;
17886;SDS011;9069;52.044;7.472;2022-09-09T06:44:19;4.43;;;1.30;;
17886;SDS011;9069;52.044;7.472;2022-09-09T06:46:46;3.00;;;1.50;;
17886;SDS011;9069;52.044;7.472;2022-09-09T06:49:16;2.92;;;2.10;;
17886;SDS011;9069;52.044;7.472;2022-09-09T06:51:42;4.88;;;1.38;;
17886;SDS011;9069;52.044;7.472;2022-09-09T06:54:11;1.95;;;1.48;;
17886;SDS011;9069;52.044;7.472;2022-09-09T06:56:42;1.98;;;1.50;;
17886;SDS011;9069;52.044;7.472;2022-09-09T06:59:16;2.20;;;1.40;;
17886;SDS011;9069;52.044;7.472;2022-09-09T07:01:44;2.53;;;1.42;;
17886;SDS011;9069;52.044;7.472;2022-09-09T07:04:12;3.78;;;1.55;;
17886;SDS011;9069;52.044;7.472;2022-09-09T07:06:43;2.17;;;1.55;;
17886;SDS011;9069;52.044;7.472;2022-09-09T07:09:19;7.78;;;1.55;;
17886;SDS011;9069;52.044;7.472;2022-09-09T07:11:49;4.18;;;1.70;;
17886;SDS011;9069;52.044;7.472;2022-09-09T07:14:22;3.65;;;1.40;;
17886;SDS011;9069;52.044;7.472;2022-09-09T07:16:55;6.60;;;1.88;;
17886;SDS011;9069;52.044;7.472;2022-09-09T07:19:26;3.17;;;1.77;;
17886;SDS011;9069;52.044;7.472;2022-09-09T07:21:54;4.47;;;2.00;;
17886;SDS011;9069;52.044;7.472;2022-09-09T07:24:23;4.22;;;1.73;;
17886;SDS011;9069;52.044;7.472;2022-09-09T07:26:50;3.42;;;1.92;;
17886;SDS011;9069;52.044;7.472;2022-09-09T07:29:18;7.45;;;2.20;;
17886;SDS011;9069;52.044;7.472;2022-09-09T07:31:47;3.78;;;1.65;;
17886;SDS011;9069;52.044;7.472;2022-09-09T07:34:18;4.88;;;1.83;;
17886;SDS011;9069;52.044;7.472;2022-09-09T07:36:45;3.00;;;1.52;;
17886;SDS011;9069;52.044;7.472;2022-09-09T07:39:13;5.93;;;1.90;;
17886;SDS011;9069;52.044;7.472;2022-09-09T07:41:47;4.40;;;1.52;;
17886;SDS011;9069;52.044;7.472;2022-09-09T07:44:18;4.50;;;1.60;;
17886;SDS011;9069;52.044;7.472;2022-09-09T07:46:50;3.10;;;1.50;;
17886;SDS011;9069;52.044;7.472;2022-09-09T07:49:23;4.13;;;1.40;;
17886;SDS011;9069;52.044;7.472;2022-09-09T07:51:58;4.20;;;1.65;;
17886;SDS011;9069;52.044;7.472;2022-09-09T07:54:26;4.93;;;1.50;;
17886;SDS011;9069;52.044;7.472;2022-09-09T07:56:53;6.60;;;1.58;;
17886;SDS011;9069;52.044;7.472;2022-09-09T07:59:22;4.90;;;1.38;;
17886;SDS011;9069;52.044;7.472;2022-09-09T08:01:51;4.55;;;1.30;;
17886;SDS011;9069;52.044;7.472;2022-09-09T08:04:26;1.88;;;1.20;;
17886;SDS011;9069;52.044;7.472;2022-09-09T08:06:57;6.15;;;1.60;;
17886;SDS011;9069;52.044;7.472;2022-09-09T08:09:29;4.93;;;1.67;;
17886;SDS011;9069;52.044;7.472;2022-09-09T08:12:14;3.95;;;1.20;;
17886;SDS011;9069;52.044;7.472;2022-09-09T08:14:41;3.80;;;1.20;;
17886;SDS011;9069;52.044;7.472;2022-09-09T08:17:08;3.83;;;1.23;;
17886;SDS011;9069;52.044;7.472;2022-09-09T08:19:36;10.35;;;1.77;;
17886;SDS011;9069;52.044;7.472;2022-09-09T08:22:08;2.50;;;1.25;;
17886;SDS011;9069;52.044;7.472;2022-09-09T08:24:37;3.75;;;1.00;;
17886;SDS011;9069;52.044;7.472;2022-09-09T08:27:04;7.20;;;1.45;;
17886;SDS011;9069;52.044;7.472;2022-09-09T08:29:31;4.43;;;0.95;;
17886;SDS011;9069;52.044;7.472;2022-09-09T08:31:58;5.05;;;1.10;;
17886;SDS011;9069;52.044;7.472;2022-09-09T08:34:27;4.80;;;1.15;;
17886;SDS011;9069;52.044;7.472;2022-09-09T08:36:55;2.35;;;0.85;;
17886;SDS011;9069;52.044;7.472;2022-09-09T08:39:29;5.28;;;1.60;;
17886;SDS011;9069;52.044;7.472;2022-09-09T08:47:22;6.85;;;1.30;;
17886;SDS011;9069;52.044;7.472;2022-09-09T08:55:50;4.32;;;1.35;;
17886;SDS011;9069;52.044;7.472;2022-09-09T08:58:31;6.40;;;1.38;;
17886;SDS011;9069;52.044;7.472;2022-09-09T09:04:00;5.63;;;1.60;;
17886;SDS011;9069;52.044;7.472;2022-09-09T09:10:04;5.93;;;1.40;;
17886;SDS011;9069;52.044;7.472;2022-09-09T09:13:12;4.10;;;1.45;;
17886;SDS011;9069;52.044;7.472;2022-09-09T09:15:42;4.90;;;1.33;;
17886;SDS011;9069;52.044;7.472;2022-09-09T09:18:13;6.63;;;2.03;;
17886;SDS011;9069;52.044;7.472;2022-09-09T09:20:46;5.32;;;1.30;;
17886;SDS011;9069;52.044;7.472;2022-09-09T09:23:42;4.05;;;1.30;;
17886;SDS011;9069;52.044;7.472;2022-09-09T09:26:18;3.58;;;1.50;;
17886;SDS011;9069;52.044;7.472;2022-09-09T09:28:45;3.75;;;1.63;;
17886;SDS011;9069;52.044;7.472;2022-09-09T09:31:18;7.30;;;1.60;;
17886;SDS011;9069;52.044;7.472;2022-09-09T09:33:50;4.18;;;1.38;;
17886;SDS011;9069;52.044;7.472;2022-09-09T09:36:34;4.25;;;1.67;;
17886;SDS011;9069;52.044;7.472;2022-09-09T09:39:09;6.03;;;1.45;;
17886;SDS011;9069;52.044;7.472;2022-09-09T09:42:07;3.28;;;1.13;;
17886;SDS011;9069;52.044;7.472;2022-09-09T09:44:47;3.08;;;1.17;;
17886;SDS011;9069;52.044;7.472;2022-09-09T09:47:21;5.78;;;1.30;;
17886;SDS011;9069;52.044;7.472;2022-09-09T09:50:18;5.97;;;1.15;;
17886;SDS011;9069;52.044;7.472;2022-09-09T09:52:59;6.45;;;1.30;;
17886;SDS011;9069;52.044;7.472;2022-09-09T09:55:31;3.80;;;1.52;;
17886;SDS011;9069;52.044;7.472;2022-09-09T09:58:05;4.20;;;1.23;;
17886;SDS011;9069;52.044;7.472;2022-09-09T10:00:36;2.90;;;1.27;;
17886;SDS011;9069;52.044;7.472;2022-09-09T10:03:23;3.72;;;1.30;;
17886;SDS011;9069;52.044;7.472;2022-09-09T10:05:54;2.75;;;1.20;;
17886;SDS011;9069;52.044;7.472;2022-09-09T10:08:23;7.75;;;1.48;;
17886;SDS011;9069;52.044;7.472;2022-09-09T10:27:20;2.17;;;1.00;;
17886;SDS011;9069;52.044;7.472;2022-09-09T10:32:37;1.63;;;0.68;;
17886;SDS011;9069;52.044;7.472;2022-09-09T10:35:22;5.15;;;1.08;;
17886;SDS011;9069;52.044;7.472;2022-09-09T10:40:31;2.75;;;0.95;;
17886;SDS011;9069;52.044;7.472;2022-09-09T10:56:48;1.40;;;0.80;;
17886;SDS011;9069;52.044;7.472;2022-09-09T10:59:24;2.97;;;1.33;;
17886;SDS011;9069;52.044;7.472;2022-09-09T11:02:03;2.38;;;0.80;;
17886;SDS011;9069;52.044;7.472;2022-09-09T11:04:40;2.95;;;1.05;;
17886;SDS011;9069;52.044;7.472;2022-09-09T11:07:11;2.65;;;1.02;;
17886;SDS011;9069;52.044;7.472;2022-09-09T11:09:43;3.88;;;1.05;;
17886;SDS011;9069;52.044;7.472;2022-09-09T11:12:17;3.33;;;0.73;;
17886;SDS011;9069;52.044;7.472;2022-09-09T11:14:50;1.67;;;0.75;;
17886;SDS011;9069;52.044;7.472;2022-09-09T11:17:39;4.43;;;0.90;;
17886;SDS011;9069;52.044;7.472;2022-09-09T11:20:12;2.35;;;0.80;;
17886;SDS011;9069;52.044;7.472;2022-09-09T11:22:48;2.65;;;0.77;;
17886;SDS011;9069;52.044;7.472;2022-09-09T11:25:35;2.70;;;0.80;;
17886;SDS011;9069;52.044;7.472;2022-09-09T11:28:10;2.20;;;0.88;;
17886;SDS011;9069;52.044;7.472;2022-09-09T11:36:35;2.30;;;0.88;;
17886;SDS011;9069;52.044;7.472;2022-09-09T11:42:22;4.70;;;1.00;;
17886;SDS011;9069;52.044;7.472;2022-09-09T11:44:50;6.50;;;1.30;;
17886;SDS011;9069;52.044;7.472;2022-09-09T11:47:23;2.55;;;1.20;;
17886;SDS011;9069;52.044;7.472;2022-09-09T11:50:06;3.80;;;0.95;;
17886;SDS011;9069;52.044;7.472;2022-09-09T11:52:43;4.28;;;1.00;;
17886;SDS011;9069;52.044;7.472;2022-09-09T11:57:58;2.70;;;0.88;;
17886;SDS011;9069;52.044;7.472;2022-09-09T12:00:39;3.05;;;1.10;;
17886;SDS011;9069;52.044;7.472;2022-09-09T12:08:43;1.08;;;0.70;;
17886;SDS011;9069;52.044;7.472;2022-09-09T12:11:12;2.08;;;0.90;;
17886;SDS011;9069;52.044;7.472;2022-09-09T12:13:57;1.55;;;0.80;;
17886;SDS011;9069;52.044;7.472;2022-09-09T12:16:31;3.60;;;0.88;;
17886;SDS011;9069;52.044;7.472;2022-09-09T12:21:46;1.30;;;0.73;;
17886;SDS011;9069;52.044;7.472;2022-09-09T12:25:12;3.47;;;1.00;;
17886;SDS011;9069;52.044;7.472;2022-09-09T12:27:42;2.30;;;0.60;;
17886;SDS011;9069;52.044;7.472;2022-09-09T12:30:16;4.07;;;0.57;;
17886;SDS011;9069;52.044;7.472;2022-09-09T12:32:43;3.08;;;0.82;;
17886;SDS011;9069;52.044;7.472;2022-09-09T12:35:17;1.38;;;0.60;;
17886;SDS011;9069;52.044;7.472;2022-09-09T12:37:54;1.33;;;0.70;;
17886;SDS011;9069;52.044;7.472;2022-09-09T12:40:32;2.60;;;0.70;;
17886;SDS011;9069;52.044;7.472;2022-09-09T12:43:02;1.20;;;0.60;;
17886;SDS011;9069;52.044;7.472;2022-09-09T12:45:43;1.20;;;0.57;;
17886;SDS011;9069;52.044;7.472;2022-09-09T12:48:11;1.23;;;0.68;;
17886;SDS011;9069;52.044;7.472;2022-09-09T12:50:45;2.53;;;0.80;;
17886;SDS011;9069;52.044;7.472;2022-09-09T12:53:25;8.07;;;0.82;;
17886;SDS011;9069;52.044;7.472;2022-09-09T12:55:56;1.77;;;0.63;;
17886;SDS011;9069;52.044;7.472;2022-09-09T12:58:30;1.27;;;0.68;;
17886;SDS011;9069;52.044;7.472;2022-09-09T13:01:01;4.07;;;0.90;;
17886;SDS011;9069;52.044;7.472;2022-09-09T13:03:33;3.38;;;0.75;;
17886;SDS011;9069;52.044;7.472;2022-09-09T13:06:12;2.30;;;0.68;;
17886;SDS011;9069;52.044;7.472;2022-09-09T13:08:44;4.38;;;0.82;;
17886;SDS011;9069;52.044;7.472;2022-09-09T13:11:13;1.45;;;0.60;;
17886;SDS011;9069;52.044;7.472;2022-09-09T13:13:43;1.92;;;0.65;;
17886;SDS011;9069;52.044;7.472;2022-09-09T13:16:35;1.25;;;0.70;;
17886;SDS011;9069;52.044;7.472;2022-09-09T13:19:09;1.30;;;0.50;;
17886;SDS011;9069;52.044;7.472;2022-09-09T13:21:40;1.92;;;0.80;;
17886;SDS011;9069;52.044;7.472;2022-09-09T13:26:59;1.45;;;0.63;;
17886;SDS011;9069;52.044;7.472;2022-09-09T13:29:28;3.63;;;0.93;;
17886;SDS011;9069;52.044;7.472;2022-09-09T13:32:03;1.75;;;0.82;;
17886;SDS011;9069;52.044;7.472;2022-09-09T13:34:32;4.40;;;1.10;;
17886;SDS011;9069;52.044;7.472;2022-09-09T13:37:02;1.90;;;0.70;;
17886;SDS011;9069;52.044;7.472;2022-09-09T13:39:36;2.13;;;0.77;;
17886;SDS011;9069;52.044;7.472;2022-09-09T13:42:03;2.83;;;0.85;;
17886;SDS011;9069;52.044;7.472;2022-09-09T13:44:31;2.80;;;0.73;;
17886;SDS011;9069;52.044;7.472;2022-09-09T13:49:36;1.73;;;0.80;;
17886;SDS011;9069;52.044;7.472;2022-09-09T13:52:08;1.38;;;0.60;;
17886;SDS011;9069;52.044;7.472;2022-09-09T13:54:37;1.00;;;0.60;;
17886;SDS011;9069;52.044;7.472;2022-09-09T13:57:04;1.88;;;0.60;;
17886;SDS011;9069;52.044;7.472;2022-09-09T13:59:32;1.02;;;0.60;;
17886;SDS011;9069;52.044;7.472;2022-09-09T14:02:18;1.70;;;0.50;;
17886;SDS011;9069;52.044;7.472;2022-09-09T14:04:47;1.77;;;0.68;;
17886;SDS011;9069;52.044;7.472;2022-09-09T14:07:17;1.05;;;0.68;;
17886;SDS011;9069;52.044;7.472;2022-09-09T14:09:44;1.27;;;0.70;;
17886;SDS011;9069;52.044;7.472;2022-09-09T14:12:16;2.33;;;0.93;;
17886;SDS011;9069;52.044;7.472;2022-09-09T14:14:42;3.55;;;0.90;;
17886;SDS011;9069;52.044;7.472;2022-09-09T14:17:10;4.82;;;0.98;;
17886;SDS011;9069;52.044;7.472;2022-09-09T14:19:36;2.47;;;0.70;;
17886;SDS011;9069;52.044;7.472;2022-09-09T14:22:03;1.92;;;0.52;;
17886;SDS011;9069;52.044;7.472;2022-09-09T14:24:30;2.10;;;0.60;;
17886;SDS011;9069;52.044;7.472;2022-09-09T14:26:57;1.63;;;0.77;;
17886;SDS011;9069;52.044;7.472;2022-09-09T14:29:23;1.40;;;0.70;;
17886;SDS011;9069;52.044;7.472;2022-09-09T14:31:52;3.55;;;1.08;;
17886;SDS011;9069;52.044;7.472;2022-09-09T14:34:19;4.25;;;0.77;;
17886;SDS011;9069;52.044;7.472;2022-09-09T14:36:46;2.95;;;1.02;;
17886;SDS011;9069;52.044;7.472;2022-09-09T14:39:13;2.15;;;0.82;;
17886;SDS011;9069;52.044;7.472;2022-09-09T14:41:40;1.95;;;0.68;;
17886;SDS011;9069;52.044;7.472;2022-09-09T14:44:06;2.15;;;0.60;;
17886;SDS011;9069;52.044;7.472;2022-09-09T14:46:34;1.70;;;0.63;;
17886;SDS011;9069;52.044;7.472;2022-09-09T14:49:00;2.63;;;0.82;;
17886;SDS011;9069;52.044;7.472;2022-09-09T14:51:27;2.47;;;0.70;;
17886;SDS011;9069;52.044;7.472;2022-09-09T14:53:55;2.10;;;0.75;;
17886;SDS011;9069;52.044;7.472;2022-09-09T14:56:24;1.75;;;0.60;;
17886;SDS011;9069;52.044;7.472;2022-09-09T14:58:55;1.38;;;0.80;;
17886;SDS011;9069;52.044;7.472;2022-09-09T15:01:23;1.63;;;0.73;;
17886;SDS011;9069;52.044;7.472;2022-09-09T15:03:58;1.65;;;0.70;;
17886;SDS011;9069;52.044;7.472;2022-09-09T15:06:26;2.10;;;0.50;;
17886;SDS011;9069;52.044;7.472;2022-09-09T15:08:55;0.90;;;0.70;;
17886;SDS011;9069;52.044;7.472;2022-09-09T15:11:28;1.27;;;0.70;;
17886;SDS011;9069;52.044;7.472;2022-09-09T15:13:58;3.13;;;0.77;;
17886;SDS011;9069;52.044;7.472;2022-09-09T15:16:25;1.70;;;0.50;;
17886;SDS011;9069;52.044;7.472;2022-09-09T15:18:55;1.27;;;0.60;;
17886;SDS011;9069;52.044;7.472;2022-09-09T15:21:24;0.93;;;0.70;;
17886;SDS011;9069;52.044;7.472;2022-09-09T15:23:53;1.13;;;0.63;;
17886;SDS011;9069;52.044;7.472;2022-09-09T15:26:20;3.13;;;0.40;;
17886;SDS011;9069;52.044;7.472;2022-09-09T15:28:48;2.70;;;0.50;;
17886;SDS011;9069;52.044;7.472;2022-09-09T15:31:19;1.85;;;0.43;;
17886;SDS011;9069;52.044;7.472;2022-09-09T15:33:51;1.35;;;0.40;;
17886;SDS011;9069;52.044;7.472;2022-09-09T15:36:23;4.13;;;0.60;;
17886;SDS011;9069;52.044;7.472;2022-09-09T15:38:51;2.63;;;0.55;;
17886;SDS011;9069;52.044;7.472;2022-09-09T15:41:19;0.98;;;0.50;;
17886;SDS011;9069;52.044;7.472;2022-09-09T15:43:48;1.85;;;0.60;;
17886;SDS011;9069;52.044;7.472;2022-09-09T15:48:43;2.30;;;0.60;;
17886;SDS011;9069;52.044;7.472;2022-09-09T15:51:13;1.02;;;0.40;;
17886;SDS011;9069;52.044;7.472;2022-09-09T15:54:00;1.60;;;0.60;;
17886;SDS011;9069;52.044;7.472;2022-09-09T15:56:27;1.60;;;0.75;;
17886;SDS011;9069;52.044;7.472;2022-09-09T15:58:58;2.63;;;0.70;;
17886;SDS011;9069;52.044;7.472;2022-09-09T16:01:26;2.30;;;0.40;;
17886;SDS011;9069;52.044;7.472;2022-09-09T16:03:53;2.72;;;0.73;;
17886;SDS011;9069;52.044;7.472;2022-09-09T16:06:21;1.20;;;0.70;;
17886;SDS011;9069;52.044;7.472;2022-09-09T16:08:49;1.25;;;0.60;;
17886;SDS011;9069;52.044;7.472;2022-09-09T16:11:20;2.15;;;0.60;;
17886;SDS011;9069;52.044;7.472;2022-09-09T16:13:49;2.47;;;1.00;;
17886;SDS011;9069;52.044;7.472;2022-09-09T16:16:18;2.42;;;1.00;;
17886;SDS011;9069;52.044;7.472;2022-09-09T16:18:49;2.05;;;0.90;;
17886;SDS011;9069;52.044;7.472;2022-09-09T16:21:21;3.03;;;0.85;;
17886;SDS011;9069;52.044;7.472;2022-09-09T16:23:52;1.25;;;0.70;;
17886;SDS011;9069;52.044;7.472;2022-09-09T16:26:19;3.38;;;1.05;;
17886;SDS011;9069;52.044;7.472;2022-09-09T16:28:47;1.73;;;0.68;;
17886;SDS011;9069;52.044;7.472;2022-09-09T16:31:18;3.00;;;0.85;;
17886;SDS011;9069;52.044;7.472;2022-09-09T16:33:48;2.00;;;0.80;;
17886;SDS011;9069;52.044;7.472;2022-09-09T16:36:17;1.73;;;0.68;;
17886;SDS011;9069;52.044;7.472;2022-09-09T16:38:46;3.05;;;0.85;;
17886;SDS011;9069;52.044;7.472;2022-09-09T16:41:13;3.72;;;1.50;;
17886;SDS011;9069;52.044;7.472;2022-09-09T16:43:40;2.03;;;1.08;;
17886;SDS011;9069;52.044;7.472;2022-09-09T16:46:17;2.33;;;0.80;;
17886;SDS011;9069;52.044;7.472;2022-09-09T16:48:46;0.80;;;0.60;;
17886;SDS011;9069;52.044;7.472;2022-09-09T16:51:14;1.90;;;0.40;;
17886;SDS011;9069;52.044;7.472;2022-09-09T16:53:41;1.73;;;0.63;;
17886;SDS011;9069;52.044;7.472;2022-09-09T16:56:10;1.08;;;0.60;;
17886;SDS011;9069;52.044;7.472;2022-09-09T16:58:38;1.48;;;0.70;;
17886;SDS011;9069;52.044;7.472;2022-09-09T17:01:05;2.30;;;1.00;;
17886;SDS011;9069;52.044;7.472;2022-09-09T17:03:32;2.38;;;0.90;;
17886;SDS011;9069;52.044;7.472;2022-09-09T17:05:59;1.15;;;0.70;;
17886;SDS011;9069;52.044;7.472;2022-09-09T17:08:29;7.63;;;0.60;;
17886;SDS011;9069;52.044;7.472;2022-09-09T17:10:56;1.25;;;0.70;;
17886;SDS011;9069;52.044;7.472;2022-09-09T17:13:23;1.65;;;0.50;;
17886;SDS011;9069;52.044;7.472;2022-09-09T17:15:51;0.93;;;0.50;;
17886;SDS011;9069;52.044;7.472;2022-09-09T17:18:17;2.60;;;0.40;;
17886;SDS011;9069;52.044;7.472;2022-09-09T17:20:44;1.05;;;0.43;;
17886;SDS011;9069;52.044;7.472;2022-09-09T17:23:12;4.22;;;0.55;;
17886;SDS011;9069;52.044;7.472;2022-09-09T17:25:42;1.63;;;0.75;;
17886;SDS011;9069;52.044;7.472;2022-09-09T17:28:09;1.17;;;0.95;;
17886;SDS011;9069;52.044;7.472;2022-09-09T17:30:36;1.60;;;0.73;;
17886;SDS011;9069;52.044;7.472;2022-09-09T17:33:03;1.15;;;0.70;;
17886;SDS011;9069;52.044;7.472;2022-09-09T17:35:31;1.60;;;0.70;;
17886;SDS011;9069;52.044;7.472;2022-09-09T17:37:57;1.27;;;0.60;;
17886;SDS011;9069;52.044;7.472;2022-09-09T17:40:24;1.55;;;0.60;;